Saint Petersburg Beach, Florida
Current Conditions -  °F | °C
As of 5:53 AM on Friday 31 Oct 2014 (Local Time) from KSPG Reporting Station
Few Clouds Few Clouds  
Wind Chill: 70°   Ceiling: Unl
Heat Index: 70°   Visibility: 10mi
Dew Point: 64°   Wind: 7mph
Humidity: 81%   Direction: 360°N
Pressure: 29.84"   Gusts: NA
Location:  27.7254°N, 82.7422°W
Report Text: KSPG 310953Z AUTO 36006KT 10SM FEW050 21/18 A2984 RMK AO2 SLP106 T02110178
Loading
Personal Weather Stations






























Interactive Weather Map New forecast layout! Learn more

10-Day Weather Forecast

Advertisements
Track Severe Weather on mobile